Time;durP1;ratioP1;P1;durP2;ratioP2;P2;SDS_P1;SDS_P2;PMS_P1;PMS_P2;Temp;Humidity;BMP_temperature;BMP_pressure;BME280_temperature;BME280_humidity;BME280_pressure;Samples;Min_cycle;Max_cycle;Signal;HPM_P1;HPM_P2
2022/09/02 00:06:53;;;;;;;5.47;2.20;;;;;;;13.79;62.56;100699.06;30867702;28;97345;-62
2022/09/02 00:21:55;;;;;;;4.75;1.95;;;;;;;13.78;62.86;100701.91;30865431;28;97476;-60
2022/09/02 00:36:56;;;;;;;3.03;1.90;;;;;;;13.67;63.24;100712.03;30864282;28;97081;-60
2022/09/02 00:52:08;;;;;;;4.70;2.38;;;;;;;13.52;63.70;100705.78;30864340;28;96823;-62
2022/09/02 01:07:08;;;;;;;5.27;2.33;;;;;;;13.30;63.97;100704.69;30863443;28;98147;-60
2022/09/02 01:22:20;;;;;;;5.22;2.10;;;;;;;13.09;64.96;100703.44;30861802;28;97408;-61
2022/09/02 01:37:21;;;;;;;9.67;2.90;;;;;;;13.03;65.54;100706.84;30860538;28;96746;-60
2022/09/02 01:52:23;;;;;;;3.17;2.13;;;;;;;13.07;66.34;100716.19;30859065;28;96868;-60
2022/09/02 02:07:23;;;;;;;4.20;2.50;;;;;;;13.17;66.50;100699.91;30857760;28;96821;-61
2022/09/02 02:22:25;;;;;;;7.60;3.03;;;;;;;13.25;66.60;100697.19;30856531;28;96838;-59
2022/09/02 02:37:25;;;;;;;6.10;2.80;;;;;;;13.25;66.75;100696.38;30853861;28;96737;-60
2022/09/02 02:52:26;;;;;;;6.43;2.80;;;;;;;13.10;66.78;100699.78;30853272;28;96766;-61
2022/09/02 03:07:27;;;;;;;4.38;2.67;;;;;;;13.02;67.11;100697.13;30851868;28;97063;-60
2022/09/02 03:22:27;;;;;;;4.73;2.50;;;;;;;13.09;67.21;100686.56;30866057;28;96693;-60
2022/09/02 03:37:28;;;;;;;6.07;2.55;;;;;;;13.19;67.62;100680.00;30870664;28;97646;-60
2022/09/02 03:52:28;;;;;;;6.38;2.90;;;;;;;13.12;67.41;100686.22;30868151;28;96690;-60
2022/09/02 04:07:29;;;;;;;6.78;2.63;;;;;;;13.12;67.50;100692.44;30866533;28;96759;-61
2022/09/02 04:22:30;;;;;;;7.03;2.55;;;;;;;13.19;67.74;100701.41;30864059;28;96672;-60
2022/09/02 04:37:32;;;;;;;6.50;2.90;;;;;;;13.26;67.49;100703.38;30862594;28;97507;-61
2022/09/02 04:52:32;;;;;;;11.47;2.80;;;;;;;13.15;68.14;100694.75;30856997;28;97324;-61
2022/09/02 05:07:35;;;;;;;9.40;2.60;;;;;;;13.07;68.13;100702.81;30858198;28;96737;-61
2022/09/02 05:22:35;;;;;;;;;;;;;;;13.03;68.69;100701.50;30858672;28;96679;-60
2022/09/02 05:37:36;;;;;;;8.90;2.70;;;;;;;13.66;69.27;100699.66;30745986;28;96776;-60
2022/09/02 05:52:36;;;;;;;6.10;2.10;;;;;;;15.38;67.88;100698.06;30795984;28;97346;-62
2022/09/02 06:07:36;;;;;;;6.55;3.00;;;;;;;16.60;64.91;100700.81;30855190;28;97421;-61
2022/09/02 06:22:37;;;;;;;3.78;1.58;;;;;;;17.49;63.00;100697.25;30849804;28;96655;-61
2022/09/02 06:37:37;;;;;;;4.10;1.75;;;;;;;18.61;59.99;100696.69;30853846;28;96674;-62
2022/09/02 06:52:38;;;;;;;4.53;1.60;;;;;;;19.25;57.68;100700.44;30861018;28;96703;-62
2022/09/02 07:07:41;;;;;;;4.80;1.40;;;;;;;19.57;54.67;100705.03;30870388;28;96901;-61
2022/09/02 07:22:41;;;;;;;1.47;0.80;;;;;;;20.36;52.11;100715.50;30866933;28;97194;-61
2022/09/02 07:37:41;;;;;;;1.45;0.90;;;;;;;20.73;49.83;100705.56;30868978;28;96826;-61
2022/09/02 07:52:42;;;;;;;1.83;0.77;;;;;;;21.80;47.11;100717.75;30766163;28;96746;-61
2022/09/02 08:07:42;;;;;;;2.83;0.80;;;;;;;22.88;44.01;100714.06;30778003;28;96942;-61
2022/09/02 08:22:43;;;;;;;3.10;0.63;;;;;;;23.79;41.05;100709.81;30845409;28;97477;-61
2022/09/02 08:37:43;;;;;;;3.13;0.60;;;;;;;24.93;37.43;100705.00;30859210;28;96780;-61
2022/09/02 08:52:53;;;;;;;2.25;0.70;;;;;;;25.76;35.25;100708.63;30748679;28;97705;-62
2022/09/02 09:08:18;;;;;;;4.07;1.37;;;;;;;27.81;32.34;100686.13;30788363;28;97693;-61
2022/09/02 09:23:21;;;;;;;5.57;0.70;;;;;;;42.17;17.28;100690.59;30849179;28;96722;-61
2022/09/02 09:38:35;;;;;;;;;;;;;;;47.60;12.10;100688.28;30848626;28;97155;-61
2022/09/02 09:53:37;;;;;;;3.00;0.63;;;;;;;45.14;12.50;100670.09;30846215;28;97543;-64
2022/09/02 10:08:51;;;;;;;2.90;0.70;;;;;;;43.68;12.46;100652.63;30845294;28;97596;-61
2022/09/02 10:24:03;;;;;;;1.67;0.63;;;;;;;34.25;18.47;100644.47;30842963;28;97288;-59
2022/09/02 10:39:29;;;;;;;2.03;0.70;;;;;;;28.87;22.62;100641.53;30840960;28;97129;-59
2022/09/02 10:54:36;;;;;;;1.97;0.70;;;;;;;33.54;18.09;100628.63;30831653;28;97462;-59
2022/09/02 11:09:46;;;;;;;;;;;;;;;33.81;18.30;100618.59;30848796;28;96695;-61
2022/09/02 11:24:54;;;;;;;3.27;0.67;;;;;;;29.02;22.51;100611.28;30846335;28;97690;-63
2022/09/02 11:40:00;;;;;;;2.13;0.60;;;;;;;30.97;20.59;100602.16;30863050;28;96881;-61
2022/09/02 11:55:15;;;;;;;3.23;0.70;;;;;;;29.32;21.94;100592.16;30867067;28;97126;-61
2022/09/02 12:10:42;;;;;;;1.07;0.57;;;;;;;30.65;20.93;100583.66;30863393;28;96970;-61
2022/09/02 12:25:48;;;;;;;1.73;0.60;;;;;;;30.62;20.57;100571.31;30776294;28;96986;-61
2022/09/02 12:40:57;;;;;;;2.17;0.73;;;;;;;27.80;22.72;100564.88;30774299;28;98050;-63
2022/09/02 12:56:12;;;;;;;2.43;1.00;;;;;;;26.27;24.83;100553.41;30735213;28;97293;-63
2022/09/02 13:11:30;;;;;;;3.53;0.83;;;;;;;24.28;28.18;100543.22;30838388;28;97501;-60
2022/09/02 13:26:50;;;;;;;2.63;0.90;;;;;;;23.73;29.78;100528.53;30832551;28;96870;-60
2022/09/02 13:41:52;;;;;;;1.20;0.50;;;;;;;25.65;27.82;100522.22;30820648;28;97617;-62
2022/09/02 13:56:52;;;;;;;6.87;0.83;;;;;;;25.18;27.66;100504.66;30784629;28;97358;-59
2022/09/02 14:11:53;;;;;;;3.95;0.80;;;;;;;24.02;29.33;100496.63;30801265;28;97417;-60
2022/09/02 14:26:55;;;;;;;2.50;0.55;;;;;;;23.55;30.60;100497.00;30816514;28;96990;-60
2022/09/02 14:41:56;;;;;;;1.77;0.60;;;;;;;22.65;31.99;100495.78;30789025;28;97260;-60
2022/09/02 14:56:56;;;;;;;3.92;1.05;;;;;;;23.27;31.00;100496.88;30778221;28;97187;-60
2022/09/02 15:11:57;;;;;;;2.35;0.80;;;;;;;22.53;32.24;100492.31;30777238;28;96962;-60
2022/09/02 15:26:57;;;;;;;0.80;0.53;;;;;;;21.88;33.53;100477.94;30805402;28;96767;-60
2022/09/02 15:41:58;;;;;;;6.63;1.00;;;;;;;21.56;34.50;100474.81;30824568;28;96752;-61
2022/09/02 15:56:58;;;;;;;1.33;0.93;;;;;;;20.75;35.93;100477.94;30863244;28;96608;-60
2022/09/02 16:11:59;;;;;;;1.13;0.80;;;;;;;20.33;36.94;100469.75;30862320;28;97601;-60
2022/09/02 16:26:59;;;;;;;1.73;0.90;;;;;;;20.24;37.69;100461.13;30857230;28;97481;-61
2022/09/02 16:42:03;;;;;;;2.45;1.10;;;;;;;19.97;38.32;100455.22;30857012;28;96663;-61
2022/09/02 16:57:03;;;;;;;3.00;1.00;;;;;;;19.54;39.11;100457.72;30849687;28;96996;-60
2022/09/02 17:12:04;;;;;;;3.13;1.10;;;;;;;18.98;40.32;100467.53;30853399;28;96800;-61
2022/09/02 17:27:04;;;;;;;2.83;1.10;;;;;;;18.52;41.48;100461.41;30810782;28;97072;-61
2022/09/02 17:42:05;;;;;;;3.45;1.23;;;;;;;18.02;42.95;100453.94;30790960;28;97217;-61
2022/09/02 17:57:24;;;;;;;5.90;1.57;;;;;;;17.68;44.19;100460.44;30816252;28;96851;-61
2022/09/02 18:12:26;;;;;;;5.60;2.03;;;;;;;17.29;45.16;100467.53;30785889;28;96820;-61
2022/09/02 18:27:49;;;;;;;4.97;2.10;;;;;;;17.00;46.16;100459.63;30732171;28;97346;-62
2022/09/02 18:42:58;;;;;;;5.73;2.77;;;;;;;16.76;47.08;100469.13;30825465;28;97503;-61
2022/09/02 18:58:08;;;;;;;6.83;2.53;;;;;;;16.57;47.87;100479.63;30831081;28;97808;-61
2022/09/02 19:13:09;;;;;;;8.33;2.20;;;;;;;16.47;48.51;100487.25;30825378;28;96745;-60
2022/09/02 19:28:12;;;;;;;5.47;2.80;;;;;;;16.26;49.43;100490.06;30761171;28;97433;-61
2022/09/02 19:43:14;;;;;;;9.30;3.47;;;;;;;15.80;50.67;100495.00;30835215;28;97667;-60
2022/09/02 19:58:15;;;;;;;6.13;2.63;;;;;;;15.57;51.51;100492.53;30845311;28;97326;-60
2022/09/02 20:13:16;;;;;;;5.40;2.72;;;;;;;15.47;52.47;100486.69;30761163;28;97407;-60
2022/09/02 20:28:31;;;;;;;5.00;3.80;;;;;;;15.49;52.62;100484.63;30741225;28;97075;-60
2022/09/02 20:43:56;;;;;;;6.47;1.97;;;;;;;15.45;52.41;100489.56;30733102;28;97711;-60
2022/09/02 20:59:04;;;;;;;3.23;1.50;;;;;;;15.44;52.28;100482.53;30740209;28;96777;-60
2022/09/02 21:14:15;;;;;;;3.27;1.60;;;;;;;15.35;52.70;100484.53;30739569;28;96928;-60
2022/09/02 21:29:21;;;;;;;2.53;1.27;;;;;;;15.22;52.60;100490.59;30736707;28;96807;-61
2022/09/02 21:44:27;;;;;;;4.60;1.67;;;;;;;14.99;52.90;100488.13;30736139;28;97093;-59
2022/09/02 21:59:49;;;;;;;1.97;1.43;;;;;;;14.79;53.51;100477.22;30735378;28;96747;-60
2022/09/02 22:15:13;;;;;;;4.23;1.70;;;;;;;14.69;53.76;100476.69;30830467;28;96710;-60
2022/09/02 22:30:15;;;;;;;3.63;1.60;;;;;;;14.54;54.24;100479.38;30852187;28;96875;-59
2022/09/02 23:01:18;;;;;;;4.17;1.97;;;;;;;14.34;55.03;100479.19;30852174;28;97135;-60
2022/09/02 23:16:38;;;;;;;3.67;1.30;;;;;;;14.26;55.13;100481.97;30851620;28;97716;-62
2022/09/02 23:31:49;;;;;;;4.57;1.57;;;;;;;14.20;55.34;100465.63;30845270;28;97586;-62
2022/09/02 23:46:59;;;;;;;10.57;1.37;;;;;;;14.11;55.60;100455.19;30862031;28;96789;-62
